createdAt,value
2023-01-13T00:00:22.303Z,100250.91
2023-01-13T00:01:26.459Z,100252.59
2023-01-13T00:02:29.279Z,100246.59
2023-01-13T00:03:31.028Z,100250.09
2023-01-13T00:04:33.564Z,100256.25
2023-01-13T00:05:35.553Z,100254.59
2023-01-13T00:06:37.450Z,100254.69
2023-01-13T00:07:40.360Z,100251.22
2023-01-13T00:08:42.444Z,100252.13
2023-01-13T00:09:44.137Z,100255.59
2023-01-13T00:10:49.158Z,100261.66
2023-01-13T00:11:50.924Z,100255.50
2023-01-13T00:12:53.960Z,100256.47
2023-01-13T00:13:56.153Z,100253.09
2023-01-13T00:14:57.912Z,100235.69
2023-01-13T00:16:02.245Z,100245.28
2023-01-13T00:17:05.531Z,100253.94
2023-01-13T00:18:07.305Z,100247.78
2023-01-13T00:19:08.987Z,100250.41
2023-01-13T00:20:11.425Z,100252.91
2023-01-13T00:21:16.369Z,100240.66
2023-01-13T00:22:18.362Z,100249.09
2023-01-13T00:23:20.275Z,100249.91
2023-01-13T00:24:22.387Z,100250.69
2023-01-13T00:25:24.327Z,100260.13
2023-01-13T00:26:30.835Z,100258.31
2023-01-13T00:27:33.362Z,100262.53
2023-01-13T00:28:37.384Z,100236.53
2023-01-13T00:29:39.144Z,100242.41
2023-01-13T00:30:40.923Z,100248.38
2023-01-13T00:31:42.652Z,100261.97
2023-01-13T00:32:45.117Z,100255.69
2023-01-13T00:33:49.324Z,100255.44
2023-01-13T00:34:51.731Z,100240.50
2023-01-13T00:36:01.459Z,100248.25
2023-01-13T00:37:03.234Z,100232.56
2023-01-13T00:38:04.902Z,100241.09
2023-01-13T00:39:06.956Z,100247.88
2023-01-13T00:40:09.634Z,100250.47
2023-01-13T00:41:23.085Z,100241.03
2023-01-13T00:42:43.778Z,100259.78
2023-01-13T00:43:46.294Z,100257.91
2023-01-13T00:44:48.155Z,100268.16
2023-01-13T00:45:52.827Z,100262.88
2023-01-13T00:46:54.600Z,100274.22
2023-01-13T00:47:56.378Z,100262.19
2023-01-13T00:48:58.159Z,100266.44
2023-01-13T00:50:00.116Z,100256.06
2023-01-13T00:51:14.958Z,100268.22
2023-01-13T00:52:16.736Z,100264.66
2023-01-13T00:53:18.870Z,100259.38
2023-01-13T00:54:20.666Z,100258.47
2023-01-13T00:55:22.739Z,100242.91
2023-01-13T00:56:39.753Z,100241.16
2023-01-13T00:57:42.326Z,100242.88
2023-01-13T00:58:49.882Z,100238.53
2023-01-13T00:59:51.526Z,100231.63
2023-01-13T01:00:53.403Z,100234.25
2023-01-13T01:01:55.266Z,100228.97
2023-01-13T01:02:57.059Z,100235.06
2023-01-13T01:03:58.787Z,100235.09
2023-01-13T01:05:01.173Z,100230.75
2023-01-13T01:06:16.123Z,100235.03
2023-01-13T01:07:17.768Z,100229.03
2023-01-13T01:08:19.565Z,100227.34
2023-01-13T01:09:21.407Z,100227.31
2023-01-13T01:10:23.184Z,100223.03
2023-01-13T01:11:27.895Z,100221.34
2023-01-13T01:12:29.678Z,100224.91
2023-01-13T01:13:32.700Z,100222.19
2023-01-13T01:14:34.688Z,100222.97
2023-01-13T01:15:40.349Z,100222.97
2023-01-13T01:16:42.514Z,100221.22
2023-01-13T01:17:44.154Z,100228.97
2023-01-13T01:18:47.852Z,100225.41
2023-01-13T01:19:50.257Z,100229.00
2023-01-13T01:20:52.158Z,100228.97
2023-01-13T01:21:55.390Z,100235.06
2023-01-13T01:22:57.057Z,100232.34
2023-01-13T01:24:01.285Z,100235.97
2023-01-13T01:25:03.384Z,100240.31
2023-01-13T01:26:11.953Z,100239.31
2023-01-13T01:27:13.789Z,100239.22
2023-01-13T01:28:18.422Z,100241.72
2023-01-13T01:29:20.110Z,100242.50
2023-01-13T01:30:21.811Z,100249.59
2023-01-13T01:31:29.370Z,100249.63
2023-01-13T01:32:34.238Z,100247.84
2023-01-13T01:33:36.101Z,100254.91
2023-01-13T01:34:39.338Z,100252.94
2023-01-13T01:35:41.433Z,100256.53
2023-01-13T01:36:43.233Z,100270.38
2023-01-13T01:37:45.214Z,100259.31
2023-01-13T01:38:48.345Z,100275.78
2023-01-13T01:39:50.216Z,100288.81
2023-01-13T01:40:52.004Z,100275.97
2023-01-13T01:42:12.206Z,100287.13
2023-01-13T01:43:39.682Z,100278.72
2023-01-13T01:44:58.672Z,100300.47
2023-01-13T01:46:00.699Z,100295.44
2023-01-13T01:47:02.438Z,100297.19
2023-01-13T01:48:05.797Z,100298.09
2023-01-13T01:49:31.901Z,100285.00
2023-01-13T01:50:36.116Z,100291.16
2023-01-13T01:51:50.002Z,100297.25
2023-01-13T01:53:00.584Z,100288.50
2023-01-13T01:54:07.430Z,100292.84
2023-01-13T01:55:16.291Z,100291.09
2023-01-13T01:56:20.413Z,100292.69
2023-01-13T01:57:36.231Z,100289.22
2023-01-13T01:58:50.274Z,100290.91
2023-01-13T01:59:52.142Z,100288.09
2023-01-13T02:00:53.953Z,100279.41
2023-01-13T02:01:56.426Z,100266.34
2023-01-13T02:03:00.760Z,100257.63
2023-01-13T02:04:14.267Z,100257.50
2023-01-13T02:05:16.540Z,100262.56
2023-01-13T02:06:19.258Z,100281.41
2023-01-13T02:07:28.252Z,100273.75
2023-01-13T02:08:30.519Z,100272.97
2023-01-13T02:09:35.317Z,100259.88
2023-01-13T02:10:38.273Z,100258.13
2023-01-13T02:11:58.512Z,100255.41
2023-01-13T02:13:05.363Z,100255.41
2023-01-13T02:14:07.401Z,100244.13
2023-01-13T02:15:14.637Z,100245.81
2023-01-13T02:16:23.471Z,100250.41
2023-01-13T02:17:51.928Z,100250.41
2023-01-13T02:19:15.096Z,100254.00
2023-01-13T02:20:29.134Z,100259.06
2023-01-13T02:21:53.012Z,100264.09
2023-01-13T02:23:42.331Z,100258.91
2023-01-13T02:25:11.820Z,100240.69
2023-01-13T02:26:31.941Z,100247.69
2023-01-13T02:27:46.734Z,100256.25
2023-01-13T02:29:24.426Z,100263.06
2023-01-13T02:31:12.495Z,100262.16
2023-01-13T02:32:26.301Z,100263.72
2023-01-13T02:33:34.842Z,100262.81
2023-01-13T02:34:44.893Z,100272.28
2023-01-13T02:35:57.558Z,100268.00
2023-01-13T02:37:18.999Z,100269.94
2023-01-13T02:38:29.992Z,100263.06
2023-01-13T02:39:46.214Z,100254.38
2023-01-13T02:41:29.302Z,100258.84
2023-01-13T02:42:53.567Z,100268.25
2023-01-13T02:44:07.062Z,100267.34
2023-01-13T02:45:38.032Z,100266.63
2023-01-13T02:47:18.993Z,100270.06
2023-01-13T02:48:24.196Z,100270.06
2023-01-13T02:49:36.692Z,100256.25
2023-01-13T02:50:50.990Z,100259.81
2023-01-13T02:51:59.669Z,100262.72
2023-01-13T02:53:13.838Z,100265.38
2023-01-13T02:54:28.582Z,100261.84
2023-01-13T02:55:37.917Z,100260.06
2023-01-13T02:56:44.632Z,100259.25
2023-01-13T02:57:49.853Z,100261.84
2023-01-13T02:58:56.041Z,100253.94
2023-01-13T03:00:00.419Z,100248.66
2023-01-13T03:01:02.376Z,100246.78
2023-01-13T03:02:12.678Z,100241.59
2023-01-13T03:03:14.789Z,100244.31
2023-01-13T03:04:47.493Z,100241.66
2023-01-13T03:05:55.860Z,100250.22
2023-01-13T03:07:13.490Z,100247.56
2023-01-13T03:08:39.818Z,100244.13
2023-01-13T03:10:23.518Z,100233.75
2023-01-13T03:11:33.478Z,100244.13
2023-01-13T03:12:48.235Z,100239.91
2023-01-13T03:14:47.479Z,100245.28
2023-01-13T03:16:16.791Z,100246.13
2023-01-13T03:17:35.249Z,100246.16
2023-01-13T03:18:55.199Z,100235.75
2023-01-13T03:20:21.669Z,100243.53
2023-01-13T03:21:48.364Z,100240.91
2023-01-13T03:23:15.709Z,100230.59
2023-01-13T03:24:27.571Z,100232.19
2023-01-13T03:25:41.513Z,100230.38
2023-01-13T03:27:09.013Z,100226.03
2023-01-13T03:28:37.540Z,100232.13
2023-01-13T03:30:04.077Z,100235.56
2023-01-13T03:31:15.695Z,100228.75
2023-01-13T03:32:31.189Z,100233.81
2023-01-13T03:33:45.836Z,100234.59
2023-01-13T03:34:56.047Z,100236.41
2023-01-13T03:36:04.891Z,100233.75
2023-01-13T03:37:10.088Z,100234.59
2023-01-13T03:38:50.073Z,100238.03
2023-01-13T03:39:59.266Z,100231.03
2023-01-13T03:41:11.984Z,100227.47
2023-01-13T03:42:20.578Z,100227.38
2023-01-13T03:43:50.386Z,100233.41
2023-01-13T03:45:03.744Z,100231.75
2023-01-13T03:46:14.393Z,100230.84
2023-01-13T03:47:23.223Z,100236.09
2023-01-13T03:48:29.343Z,100241.28
2023-01-13T03:49:44.861Z,100235.25
2023-01-13T03:50:51.971Z,100237.91
2023-01-13T03:52:02.673Z,100238.81
2023-01-13T03:53:12.686Z,100233.50
2023-01-13T03:54:19.955Z,100230.00
2023-01-13T03:55:28.438Z,100228.31
2023-01-13T03:56:42.769Z,100241.34
2023-01-13T03:58:10.913Z,100236.94
2023-01-13T03:59:21.446Z,100235.91
2023-01-13T04:00:30.212Z,100235.91
2023-01-13T04:02:06.117Z,100227.22
2023-01-13T04:03:12.257Z,100236.81
2023-01-13T04:04:23.320Z,100246.34
2023-01-13T04:05:27.644Z,100242.84
2023-01-13T04:06:40.409Z,100237.06
2023-01-13T04:08:14.110Z,100239.00
2023-01-13T04:09:24.581Z,100242.38
2023-01-13T04:10:50.819Z,100245.69
2023-01-13T04:12:03.263Z,100248.34
2023-01-13T04:13:12.107Z,100243.94
2023-01-13T04:14:19.473Z,100243.75
2023-01-13T04:15:24.282Z,100237.66
2023-01-13T04:16:26.235Z,100240.13
2023-01-13T04:17:27.803Z,100236.44
2023-01-13T04:18:31.081Z,100246.53
2023-01-13T04:19:34.066Z,100242.06
2023-01-13T04:20:35.758Z,100230.00
2023-01-13T04:21:37.342Z,100241.09
2023-01-13T04:22:38.902Z,100235.00
2023-01-13T04:23:40.565Z,100243.75
2023-01-13T04:24:42.120Z,100251.44
2023-01-13T04:25:45.538Z,100250.25
2023-01-13T04:26:47.060Z,100242.41
2023-01-13T04:27:48.723Z,100251.84
2023-01-13T04:28:51.867Z,100244.00
2023-01-13T04:29:53.324Z,100253.59
2023-01-13T04:30:54.860Z,100251.78
2023-01-13T04:31:56.363Z,100248.22
2023-01-13T04:33:00.602Z,100246.59
2023-01-13T04:34:02.125Z,100256.97
2023-01-13T04:35:03.929Z,100251.72
2023-01-13T04:36:05.840Z,100257.66
2023-01-13T04:37:07.363Z,100247.94
2023-01-13T04:38:11.973Z,100257.25
2023-01-13T04:39:13.625Z,100249.19
2023-01-13T04:40:19.064Z,100248.00
2023-01-13T04:41:20.600Z,100246.91
2023-01-13T04:42:24.696Z,100245.91
2023-01-13T04:43:26.158Z,100242.75
2023-01-13T04:44:29.020Z,100242.16
2023-01-13T04:45:31.215Z,100239.66
2023-01-13T04:46:32.686Z,100237.72
2023-01-13T04:47:34.174Z,100230.75
2023-01-13T04:48:35.942Z,100238.72
2023-01-13T04:49:37.549Z,100233.84
2023-01-13T04:50:39.254Z,100245.84
2023-01-13T04:51:40.818Z,100247.44
2023-01-13T04:52:42.386Z,100251.59
2023-01-13T04:53:43.813Z,100253.19
2023-01-13T04:54:45.420Z,100253.88
2023-01-13T04:55:47.862Z,100260.88
2023-01-13T04:56:49.538Z,100253.19
2023-01-13T04:57:51.221Z,100261.88
2023-01-13T04:58:52.796Z,100256.75
2023-01-13T04:59:54.263Z,100256.72
2023-01-13T05:00:56.016Z,100254.13
2023-01-13T05:01:58.679Z,100253.72
2023-01-13T05:03:01.172Z,100260.94
2023-01-13T05:04:03.453Z,100263.69
2023-01-13T05:05:05.365Z,100267.13
2023-01-13T05:06:07.000Z,100255.88
2023-01-13T05:07:08.503Z,100248.91
2023-01-13T05:08:10.368Z,100249.75
2023-01-13T05:09:13.465Z,100242.19
2023-01-13T05:10:15.288Z,100237.09
2023-01-13T05:11:35.346Z,100235.31
2023-01-13T05:12:55.611Z,100241.34
2023-01-13T05:14:15.555Z,100242.53
2023-01-13T05:15:35.633Z,100250.38
2023-01-13T05:16:55.946Z,100247.81
2023-01-13T05:17:57.937Z,100239.19
2023-01-13T05:18:59.576Z,100244.38
2023-01-13T05:20:01.286Z,100243.66
2023-01-13T05:21:02.798Z,100232.59
2023-01-13T05:22:27.974Z,100235.94
2023-01-13T05:23:48.117Z,100233.19
2023-01-13T05:25:08.226Z,100231.53
2023-01-13T05:26:09.968Z,100241.00
2023-01-13T05:27:12.028Z,100236.59
2023-01-13T05:28:13.960Z,100245.91
2023-01-13T05:29:15.477Z,100241.34
2023-01-13T05:30:17.862Z,100238.63
2023-01-13T05:31:19.441Z,100237.72
2023-01-13T05:32:22.161Z,100232.72
2023-01-13T05:33:23.849Z,100234.28
2023-01-13T05:34:25.488Z,100237.63
2023-01-13T05:35:26.911Z,100229.88
2023-01-13T05:36:28.422Z,100246.34
2023-01-13T05:37:30.187Z,100245.63
2023-01-13T05:38:31.746Z,100239.59
2023-01-13T05:39:52.320Z,100253.41
2023-01-13T05:41:12.303Z,100262.91
2023-01-13T05:42:32.532Z,100261.44
2023-01-13T05:43:34.825Z,100261.53
2023-01-13T05:44:36.287Z,100266.69
2023-01-13T05:45:37.736Z,100263.34
2023-01-13T05:46:40.502Z,100261.66
2023-01-13T05:47:42.300Z,100255.88
2023-01-13T05:48:44.915Z,100256.69
2023-01-13T05:49:47.989Z,100260.94
2023-01-13T05:50:50.744Z,100254.94
2023-01-13T05:51:53.233Z,100260.06
2023-01-13T05:52:56.208Z,100245.53
2023-01-13T05:53:59.192Z,100238.69
2023-01-13T05:55:00.959Z,100242.19
2023-01-13T05:56:07.069Z,100250.03
2023-01-13T05:57:08.694Z,100258.72
2023-01-13T05:58:12.031Z,100249.25
2023-01-13T05:59:13.680Z,100249.19
2023-01-13T06:00:15.930Z,100263.81
2023-01-13T06:01:17.453Z,100272.44
2023-01-13T06:02:18.972Z,100269.94
2023-01-13T06:03:20.720Z,100264.69
2023-01-13T06:04:22.229Z,100277.66
2023-01-13T06:05:23.919Z,100277.50
2023-01-13T06:06:25.512Z,100277.47
2023-01-13T06:07:27.053Z,100278.31
2023-01-13T06:08:29.537Z,100278.31
2023-01-13T06:09:31.435Z,100278.28
2023-01-13T06:10:34.395Z,100287.09
2023-01-13T06:11:36.079Z,100290.47
2023-01-13T06:12:37.555Z,100274.25
2023-01-13T06:13:39.294Z,100279.53
2023-01-13T06:14:41.060Z,100285.69
2023-01-13T06:15:42.653Z,100286.47
2023-01-13T06:16:45.516Z,100277.72
2023-01-13T06:17:47.831Z,100284.66
2023-01-13T06:18:49.299Z,100296.13
2023-01-13T06:19:51.269Z,100294.34
2023-01-13T06:20:53.615Z,100290.72
2023-01-13T06:21:57.848Z,100300.28
2023-01-13T06:23:01.055Z,100299.19
2023-01-13T06:24:03.275Z,100301.66
2023-01-13T06:25:13.505Z,100300.00
2023-01-13T06:26:20.141Z,100299.28
2023-01-13T06:27:23.092Z,100301.09
2023-01-13T06:28:24.674Z,100294.94
2023-01-13T06:29:26.327Z,100300.03
2023-01-13T06:30:34.057Z,100300.03
2023-01-13T06:31:39.113Z,100291.44
2023-01-13T06:32:47.867Z,100297.41
2023-01-13T06:33:59.640Z,100301.88
2023-01-13T06:35:08.283Z,100295.47
2023-01-13T06:36:16.504Z,100293.84
2023-01-13T06:37:23.327Z,100293.66
2023-01-13T06:38:29.231Z,100285.81
2023-01-13T06:39:32.135Z,100288.41
2023-01-13T06:40:34.766Z,100293.50
2023-01-13T06:41:55.028Z,100294.19
2023-01-13T06:43:17.439Z,100292.56
2023-01-13T06:44:22.523Z,100283.88
2023-01-13T06:45:27.548Z,100292.63
2023-01-13T06:46:29.075Z,100307.22
2023-01-13T06:47:31.372Z,100298.44
2023-01-13T06:48:35.600Z,100300.41
2023-01-13T06:49:37.364Z,100301.31
2023-01-13T06:50:38.904Z,100301.09
2023-01-13T06:51:40.564Z,100303.69
2023-01-13T06:52:42.149Z,100301.09
2023-01-13T06:53:43.861Z,100309.72
2023-01-13T06:54:45.345Z,100300.19
2023-01-13T06:55:46.861Z,100300.19
2023-01-13T06:56:48.464Z,100299.41
2023-01-13T06:57:54.983Z,100299.38
2023-01-13T06:58:56.767Z,100294.09
2023-01-13T06:59:58.416Z,100301.97
2023-01-13T07:01:01.046Z,100309.78
2023-01-13T07:02:03.729Z,100305.50
2023-01-13T07:03:09.801Z,100309.66
2023-01-13T07:04:11.608Z,100315.63
2023-01-13T07:05:14.434Z,100312.16
2023-01-13T07:06:16.142Z,100317.41
2023-01-13T07:07:17.672Z,100319.09
2023-01-13T07:08:20.077Z,100320.91
2023-01-13T07:09:21.519Z,100321.00
2023-01-13T07:10:23.043Z,100316.72
2023-01-13T07:11:27.257Z,100320.94
2023-01-13T07:12:29.351Z,100318.34
2023-01-13T07:13:49.842Z,100324.34
2023-01-13T07:15:11.174Z,100332.91
2023-01-13T07:16:13.139Z,100332.28
2023-01-13T07:17:14.825Z,100327.16
2023-01-13T07:18:16.418Z,100334.91
2023-01-13T07:19:23.133Z,100338.53
2023-01-13T07:20:24.753Z,100332.34
2023-01-13T07:21:26.411Z,100325.22
2023-01-13T07:22:28.115Z,100325.19
2023-01-13T07:23:35.708Z,100327.63
2023-01-13T07:24:37.152Z,100326.88
2023-01-13T07:25:41.856Z,100320.88
2023-01-13T07:26:43.509Z,100324.34
2023-01-13T07:27:45.018Z,100320.91
2023-01-13T07:28:46.558Z,100332.00
2023-01-13T07:29:48.031Z,100332.06
2023-01-13T07:30:49.902Z,100326.88
2023-01-13T07:31:51.377Z,100328.50
2023-01-13T07:32:52.984Z,100335.34
2023-01-13T07:33:54.635Z,100342.22
2023-01-13T07:35:03.500Z,100339.63
2023-01-13T07:36:06.161Z,100350.16
2023-01-13T07:37:07.665Z,100336.00
2023-01-13T07:38:09.191Z,100335.81
2023-01-13T07:39:10.725Z,100342.53
2023-01-13T07:40:13.042Z,100335.53
2023-01-13T07:41:33.875Z,100335.44
2023-01-13T07:42:56.809Z,100337.66
2023-01-13T07:44:04.906Z,100332.41
2023-01-13T07:45:07.031Z,100338.34
2023-01-13T07:46:08.682Z,100349.53
2023-01-13T07:47:11.315Z,100340.25
2023-01-13T07:48:13.459Z,100340.31
2023-01-13T07:49:15.183Z,100343.78
2023-01-13T07:50:16.767Z,100341.16
2023-01-13T07:51:18.680Z,100342.00
2023-01-13T07:52:20.818Z,100346.59
2023-01-13T07:53:24.962Z,100356.88
2023-01-13T07:54:39.798Z,100356.25
2023-01-13T07:55:43.545Z,100352.59
2023-01-13T07:56:45.294Z,100350.78
2023-01-13T07:57:48.339Z,100351.69
2023-01-13T07:58:53.396Z,100353.34
2023-01-13T07:59:55.192Z,100359.53
2023-01-13T08:00:57.753Z,100358.75
2023-01-13T08:01:59.629Z,100358.69
2023-01-13T08:03:01.741Z,100359.56
2023-01-13T08:04:03.355Z,100359.66
2023-01-13T08:05:05.971Z,100358.63
2023-01-13T08:06:07.854Z,100357.78
2023-01-13T08:07:09.495Z,100362.72
2023-01-13T08:08:11.259Z,100373.94
2023-01-13T08:09:12.882Z,100364.31
2023-01-13T08:10:14.472Z,100360.72
2023-01-13T08:11:16.048Z,100356.25
2023-01-13T08:12:35.938Z,100364.84
2023-01-13T08:13:37.823Z,100361.50
2023-01-13T08:14:39.431Z,100376.13
2023-01-13T08:15:40.953Z,100374.47
2023-01-13T08:16:42.689Z,100376.13
2023-01-13T08:17:44.274Z,100385.63
2023-01-13T08:18:45.674Z,100379.69
2023-01-13T08:19:47.534Z,100382.50
2023-01-13T08:20:50.212Z,100382.59
2023-01-13T08:21:51.842Z,100382.59
2023-01-13T08:23:00.915Z,100389.38
2023-01-13T08:24:02.364Z,100374.78
2023-01-13T08:25:04.180Z,100373.91
2023-01-13T08:26:09.052Z,100378.25
2023-01-13T08:27:10.478Z,100384.97
2023-01-13T08:28:13.323Z,100388.38
2023-01-13T08:29:15.285Z,100379.09
2023-01-13T08:30:18.394Z,100380.84
2023-01-13T08:31:21.912Z,100383.44
2023-01-13T08:32:23.430Z,100392.16
2023-01-13T08:33:25.294Z,100386.22
2023-01-13T08:34:26.953Z,100389.03
2023-01-13T08:35:28.406Z,100391.75
2023-01-13T08:36:30.029Z,100382.41
2023-01-13T08:37:31.746Z,100386.00
2023-01-13T08:38:34.608Z,100395.50
2023-01-13T08:39:36.211Z,100383.47
2023-01-13T08:40:40.539Z,100389.56
2023-01-13T08:42:01.978Z,100392.09
2023-01-13T08:43:03.844Z,100404.22
2023-01-13T08:44:06.503Z,100400.69
2023-01-13T08:45:08.922Z,100403.25
2023-01-13T08:46:10.629Z,100401.75
2023-01-13T08:47:13.521Z,100410.38
2023-01-13T08:48:15.171Z,100411.28
2023-01-13T08:49:17.515Z,100407.97
2023-01-13T08:50:19.873Z,100413.28
2023-01-13T08:51:21.506Z,100408.25
2023-01-13T08:52:24.514Z,100410.00
2023-01-13T08:53:26.289Z,100402.34
2023-01-13T08:54:27.717Z,100405.84
2023-01-13T08:55:29.276Z,100417.06
2023-01-13T08:56:35.041Z,100414.41
2023-01-13T08:57:36.945Z,100418.53
2023-01-13T08:58:39.013Z,100409.91
2023-01-13T08:59:40.745Z,100418.66
2023-01-13T09:00:43.213Z,100415.09
2023-01-13T09:01:45.803Z,100420.41
2023-01-13T09:02:47.501Z,100410.03
2023-01-13T09:03:49.146Z,100425.81
2023-01-13T09:04:51.432Z,100417.28
2023-01-13T09:05:53.179Z,100410.44
2023-01-13T09:06:56.089Z,100420.84
2023-01-13T09:07:57.695Z,100409.56
2023-01-13T09:08:59.832Z,100417.41
2023-01-13T09:10:01.799Z,100413.16
2023-01-13T09:11:23.672Z,100408.78
2023-01-13T09:12:44.253Z,100403.81
2023-01-13T09:13:45.762Z,100421.03
2023-01-13T09:14:47.679Z,100412.44
2023-01-13T09:15:49.740Z,100414.97
2023-01-13T09:16:51.316Z,100400.38
2023-01-13T09:17:52.801Z,100405.66
2023-01-13T09:18:54.506Z,100410.91
2023-01-13T09:19:56.168Z,100420.50
2023-01-13T09:20:58.972Z,100413.63
2023-01-13T09:22:00.632Z,100411.94
2023-01-13T09:23:02.949Z,100412.75
2023-01-13T09:24:04.719Z,100426.69
2023-01-13T09:25:08.277Z,100414.75
2023-01-13T09:26:11.274Z,100414.56
2023-01-13T09:27:15.262Z,100420.66
2023-01-13T09:28:16.811Z,100422.47
2023-01-13T09:29:18.735Z,100422.59
2023-01-13T09:30:20.527Z,100419.94
2023-01-13T09:31:22.546Z,100419.81
2023-01-13T09:32:24.205Z,100417.34
2023-01-13T09:33:44.301Z,100418.13
2023-01-13T09:35:01.095Z,100427.72
2023-01-13T09:36:12.927Z,100428.81
2023-01-13T09:37:15.744Z,100426.28
2023-01-13T09:38:18.118Z,100427.28
2023-01-13T09:39:23.240Z,100434.13
2023-01-13T09:42:56.912Z,100437.72
2023-01-13T09:44:02.754Z,100438.53
2023-01-13T09:45:25.425Z,100441.94
2023-01-13T09:46:57.856Z,100430.78
2023-01-13T09:48:08.953Z,100441.34
2023-01-13T09:49:20.947Z,100437.97
2023-01-13T09:50:44.135Z,100433.63
2023-01-13T09:51:55.367Z,100441.34
2023-01-13T09:53:01.632Z,100441.41
2023-01-13T09:54:51.886Z,100438.88
2023-01-13T09:56:03.824Z,100432.84
2023-01-13T09:57:12.428Z,100439.66
2023-01-13T09:58:24.772Z,100435.44
2023-01-13T10:01:59.443Z,100441.59
2023-01-13T10:03:33.462Z,100431.03
2023-01-13T10:05:20.217Z,100426.59
2023-01-13T10:07:07.828Z,100440.50
2023-01-13T10:08:36.908Z,100443.94
2023-01-13T10:10:09.481Z,100443.09
2023-01-13T10:11:59.067Z,100449.31
2023-01-13T10:13:34.497Z,100447.84
2023-01-13T10:14:51.447Z,100440.09
2023-01-13T10:16:54.289Z,100429.00
2023-01-13T10:19:10.118Z,100436.56
2023-01-13T10:20:37.299Z,100430.75
2023-01-13T10:21:52.269Z,100417.97
2023-01-13T10:23:38.995Z,100427.56
2023-01-13T10:25:09.662Z,100426.75
2023-01-13T10:26:50.140Z,100423.28
2023-01-13T10:27:55.523Z,100424.13
2023-01-13T10:28:58.476Z,100425.75
2023-01-13T10:30:31.662Z,100423.34
2023-01-13T10:31:33.356Z,100429.25
2023-01-13T10:32:34.828Z,100434.38
2023-01-13T10:33:36.462Z,100436.25
2023-01-13T10:34:51.911Z,100435.47
2023-01-13T10:36:00.643Z,100426.66
2023-01-13T10:37:09.014Z,100438.81
2023-01-13T10:38:19.697Z,100431.72
2023-01-13T10:40:48.190Z,100435.41
2023-01-13T10:41:58.256Z,100437.16
2023-01-13T10:43:06.580Z,100445.09
2023-01-13T10:45:03.591Z,100450.25
2023-01-13T10:46:33.667Z,100435.59
2023-01-13T10:47:41.139Z,100442.47
2023-01-13T10:49:41.121Z,100443.47
2023-01-13T10:50:43.214Z,100451.19
2023-01-13T10:51:53.415Z,100443.47
2023-01-13T10:53:32.303Z,100450.19
2023-01-13T10:54:36.501Z,100452.88
2023-01-13T10:55:38.082Z,100445.09
2023-01-13T10:56:41.925Z,100452.94
2023-01-13T10:58:01.612Z,100444.22
2023-01-13T10:59:15.020Z,100454.63
2023-01-13T11:00:28.248Z,100459.81
2023-01-13T11:02:24.398Z,100456.31
2023-01-13T11:05:41.219Z,100458.69
2023-01-13T11:06:47.170Z,100464.84
2023-01-13T11:07:59.673Z,100468.22
2023-01-13T11:09:12.199Z,100461.13
2023-01-13T11:10:33.375Z,100466.41
2023-01-13T11:13:08.270Z,100469.22
2023-01-13T11:14:54.789Z,100465.69
2023-01-13T11:17:11.000Z,100473.78
2023-01-13T11:18:31.464Z,100497.09
2023-01-13T11:20:10.044Z,100485.88
2023-01-13T11:21:23.711Z,100484.22
2023-01-13T11:23:11.682Z,100480.00
2023-01-13T11:25:00.677Z,100498.47
2023-01-13T11:26:33.512Z,100489.84
2023-01-13T11:28:21.887Z,100480.34
2023-01-13T11:30:09.589Z,100504.16
2023-01-13T11:31:44.032Z,100485.16
2023-01-13T11:34:36.751Z,100489.44
2023-01-13T11:36:05.393Z,100495.38
2023-01-13T11:37:36.554Z,100496.31
2023-01-13T11:39:00.318Z,100489.06
2023-01-13T11:40:48.955Z,100488.16
2023-01-13T11:42:22.149Z,100487.38
2023-01-13T11:46:38.390Z,100495.63
2023-01-13T11:48:08.061Z,100502.50
2023-01-13T11:49:34.946Z,100491.16
2023-01-13T11:55:55.463Z,100503.03
2023-01-13T11:57:54.232Z,100489.91
2023-01-13T11:59:33.916Z,100506.00
2023-01-13T12:01:03.816Z,100499.03
2023-01-13T12:03:00.300Z,100504.19
2023-01-13T12:06:07.814Z,100503.75
2023-01-13T12:07:40.264Z,100507.00
2023-01-13T12:12:13.973Z,100498.22
2023-01-13T12:13:24.188Z,100486.09
2023-01-13T12:15:48.453Z,100480.91
2023-01-13T12:17:06.624Z,100478.13
2023-01-13T12:18:32.731Z,100495.59
2023-01-13T12:19:34.416Z,100492.09
2023-01-13T12:21:07.978Z,100489.50
2023-01-13T12:22:14.850Z,100486.91
2023-01-13T12:24:12.931Z,100482.50
2023-01-13T12:25:39.641Z,100473.41
2023-01-13T12:31:42.043Z,100497.81
2023-01-13T12:33:28.376Z,100478.72
2023-01-13T12:35:07.647Z,100496.25
2023-01-13T12:36:25.287Z,100497.53
2023-01-13T12:37:50.054Z,100487.13
2023-01-13T12:39:15.538Z,100483.56
2023-01-13T12:40:42.346Z,100500.91
2023-01-13T12:42:20.782Z,100490.34
2023-01-13T12:43:43.075Z,100486.78
2023-01-13T12:45:07.980Z,100498.97
2023-01-13T12:46:25.567Z,100499.88
2023-01-13T12:52:06.769Z,100482.66
2023-01-13T12:53:31.543Z,100495.59
2023-01-13T12:55:27.785Z,100497.38
2023-01-13T12:56:56.021Z,100494.56
2023-01-13T12:58:12.463Z,100485.69
2023-01-13T13:00:01.990Z,100488.31
2023-01-13T13:07:44.142Z,100509.31
2023-01-13T13:09:03.152Z,100513.31
2023-01-13T13:13:11.236Z,100557.84
2023-01-13T13:15:03.614Z,100555.19
2023-01-13T13:17:34.866Z,100566.13
2023-01-13T13:22:27.226Z,100558.69
2023-01-13T13:23:57.471Z,100566.44
2023-01-13T13:25:11.959Z,100566.59
2023-01-13T13:26:20.164Z,100556.22
2023-01-13T13:28:01.638Z,100570.88
2023-01-13T13:29:43.727Z,100568.28
2023-01-13T13:33:57.698Z,100579.66
2023-01-13T13:38:29.689Z,100575.81
2023-01-13T13:40:10.917Z,100599.22
2023-01-13T13:42:54.766Z,100597.47
2023-01-13T13:46:36.540Z,100604.38
2023-01-13T13:47:39.871Z,100606.03
2023-01-13T13:48:53.734Z,100615.41
2023-01-13T13:50:16.475Z,100602.28
2023-01-13T13:51:28.572Z,100616.06
2023-01-13T13:52:59.398Z,100607.38
2023-01-13T13:54:04.078Z,100628.09
2023-01-13T13:55:22.136Z,100628.84
2023-01-13T13:56:28.283Z,100624.31
2023-01-13T13:57:39.816Z,100636.53
2023-01-13T13:58:42.079Z,100627.06
2023-01-13T13:59:58.939Z,100639.44
2023-01-13T14:01:32.379Z,100613.56
2023-01-13T14:02:37.625Z,100634.94
2023-01-13T14:03:40.318Z,100636.88
2023-01-13T14:04:42.819Z,100644.72
2023-01-13T14:05:57.381Z,100644.81
2023-01-13T14:08:31.292Z,100645.00
2023-01-13T14:11:41.359Z,100651.34
2023-01-13T14:16:14.377Z,100645.72
2023-01-13T14:17:28.873Z,100650.03
2023-01-13T14:19:07.918Z,100653.41
2023-01-13T14:20:20.768Z,100652.63
2023-01-13T14:24:21.090Z,100664.75
2023-01-13T14:25:29.156Z,100667.25
2023-01-13T14:26:57.962Z,100664.44
2023-01-13T14:28:42.182Z,100668.84
2023-01-13T14:32:46.910Z,100666.53
2023-01-13T14:33:52.206Z,100665.59
2023-01-13T14:34:54.680Z,100667.38
2023-01-13T14:37:07.213Z,100671.72